createdAt,value
2018-07-02T00:00:28.475Z,102628.01
2018-07-02T00:02:56.304Z,102630.85
2018-07-02T00:07:37.342Z,102625.21
2018-07-02T00:10:05.464Z,102624.26
2018-07-02T00:12:33.218Z,102621.75
2018-07-02T00:15:00.902Z,102622.77
2018-07-02T00:17:28.533Z,102636.24
2018-07-02T00:19:56.301Z,102634.16
2018-07-02T00:22:23.938Z,102632.98
2018-07-02T00:24:51.654Z,102628.25
2018-07-02T00:27:19.531Z,102631.59
2018-07-02T00:29:47.212Z,102628.62
2018-07-02T00:32:15.121Z,102633.13
2018-07-02T00:34:43.606Z,102631.55
2018-07-02T00:37:11.799Z,102620.96
2018-07-02T00:39:39.603Z,102625.08
2018-07-02T00:42:07.759Z,102629.64
2018-07-02T00:44:35.434Z,102631.13
2018-07-02T00:47:03.321Z,102627.27
2018-07-02T00:49:31.529Z,102622.88
2018-07-02T00:52:00.009Z,102626.59
2018-07-02T00:54:28.054Z,102618.17
2018-07-02T00:56:55.841Z,102617.84
2018-07-02T00:59:23.483Z,102614.37
2018-07-02T01:01:51.439Z,102614.47
2018-07-02T01:04:19.268Z,102616.72
2018-07-02T01:06:46.908Z,102622.59
2018-07-02T01:09:14.780Z,102623.14
2018-07-02T01:11:42.701Z,102620.09
2018-07-02T01:14:10.411Z,102484.57
2018-07-02T01:16:38.214Z,102608.75
2018-07-02T01:19:06.177Z,102615.92
2018-07-02T01:21:33.867Z,102622.25
2018-07-02T01:24:01.668Z,102618.79
2018-07-02T01:26:29.613Z,102611.77
2018-07-02T01:28:57.278Z,102606.47
2018-07-02T01:31:25.044Z,102602.52
2018-07-02T01:33:52.888Z,102608.75
2018-07-02T01:36:20.586Z,102604.80
2018-07-02T01:38:48.368Z,102602.61
2018-07-02T01:41:17.147Z,102599.98
2018-07-02T01:43:45.125Z,102606.23
2018-07-02T01:46:13.094Z,102600.08
2018-07-02T01:48:40.941Z,102600.13
2018-07-02T01:51:11.683Z,102596.13
2018-07-02T01:53:40.012Z,102598.31
2018-07-02T01:56:07.806Z,102599.25
2018-07-02T01:58:35.460Z,102590.35
2018-07-02T02:01:03.203Z,102470.44
2018-07-02T02:03:30.994Z,102596.98
2018-07-02T02:05:58.651Z,102592.52
2018-07-02T02:08:26.482Z,102595.14
2018-07-02T02:10:54.423Z,102596.44
2018-07-02T02:13:22.153Z,102588.83
2018-07-02T02:15:49.789Z,102580.37
2018-07-02T02:18:17.644Z,102588.28
2018-07-02T02:20:45.336Z,102585.16
2018-07-02T02:23:13.036Z,102577.50
2018-07-02T02:25:40.864Z,102577.00
2018-07-02T02:28:08.514Z,102574.69
2018-07-02T02:30:36.330Z,102573.25
2018-07-02T02:33:04.718Z,102574.03
2018-07-02T02:35:32.403Z,102566.83
2018-07-02T02:38:00.183Z,102567.16
2018-07-02T02:40:28.089Z,102564.39
2018-07-02T02:42:55.822Z,102568.29
2018-07-02T02:45:23.909Z,102573.06
2018-07-02T02:47:51.763Z,102565.84
2018-07-02T02:50:19.424Z,102559.50
2018-07-02T02:52:47.154Z,102551.78
2018-07-02T02:55:14.945Z,102552.51
2018-07-02T02:57:42.611Z,102550.53
2018-07-02T03:00:10.486Z,102549.97
2018-07-02T03:02:38.267Z,102551.15
2018-07-02T03:05:06.276Z,102544.73
2018-07-02T03:07:34.000Z,102539.23
2018-07-02T03:10:01.799Z,102539.02
2018-07-02T03:12:29.446Z,102535.30
2018-07-02T03:14:57.377Z,102540.81
2018-07-02T03:17:25.105Z,102538.41
2018-07-02T03:19:52.722Z,102535.56
2018-07-02T03:22:20.726Z,102531.33
2018-07-02T03:24:48.652Z,102525.36
2018-07-02T03:27:16.275Z,102525.52
2018-07-02T03:29:44.050Z,102527.45
2018-07-02T03:32:11.939Z,102522.33
2018-07-02T03:34:39.651Z,102525.20
2018-07-02T03:37:07.415Z,102520.95
2018-07-02T03:39:35.320Z,102515.75
2018-07-02T03:42:02.933Z,102513.27
2018-07-02T03:44:30.735Z,102517.44
2018-07-02T03:46:58.757Z,102514.48
2018-07-02T03:49:26.400Z,102506.60
2018-07-02T03:51:54.093Z,102512.14
2018-07-02T03:54:21.758Z,102518.13
2018-07-02T03:56:49.355Z,102505.83
2018-07-02T03:59:17.082Z,102506.02
2018-07-02T04:01:44.930Z,102505.31
2018-07-02T04:04:12.615Z,102509.92
2018-07-02T04:06:40.472Z,102517.25
2018-07-02T04:09:09.772Z,102510.36
2018-07-02T04:11:37.402Z,102520.29
2018-07-02T04:14:05.250Z,102508.42
2018-07-02T04:16:33.139Z,102496.53
2018-07-02T04:19:08.955Z,102485.99
2018-07-02T04:21:37.694Z,102487.00
2018-07-02T04:24:05.548Z,102487.61
2018-07-02T04:26:33.248Z,102480.63
2018-07-02T04:29:01.199Z,102478.06
2018-07-02T04:31:28.841Z,102478.20
2018-07-02T04:33:56.479Z,102473.94
2018-07-02T04:36:24.465Z,102472.70
2018-07-02T04:38:52.140Z,102470.63
2018-07-02T04:41:19.816Z,102465.92
2018-07-02T04:43:47.628Z,102467.86
2018-07-02T04:46:16.228Z,102465.35
2018-07-02T04:48:43.989Z,102461.42
2018-07-02T04:51:11.953Z,102458.45
2018-07-02T04:53:39.741Z,102465.21
2018-07-02T04:56:07.414Z,102457.74
2018-07-02T04:58:35.278Z,102467.69
2018-07-02T05:01:02.962Z,102462.52
2018-07-02T05:03:30.566Z,102460.87
2018-07-02T05:05:58.401Z,102459.16
2018-07-02T05:08:26.017Z,102454.75
2018-07-02T05:10:53.712Z,102453.09
2018-07-02T05:13:21.415Z,102450.98
2018-07-02T05:15:49.056Z,102444.80
2018-07-02T05:18:16.711Z,102443.59
2018-07-02T05:20:45.683Z,102440.59
2018-07-02T05:23:13.378Z,102435.78
2018-07-02T05:25:40.968Z,102437.19
2018-07-02T05:28:08.750Z,102432.38
2018-07-02T05:30:36.388Z,102436.47
2018-07-02T05:33:04.047Z,102436.06
2018-07-02T05:35:32.052Z,102434.39
2018-07-02T05:37:59.660Z,102435.83
2018-07-02T05:40:27.303Z,102430.97
2018-07-02T05:42:55.457Z,102435.97
2018-07-02T05:45:23.077Z,102430.25
2018-07-02T05:47:50.746Z,102429.34
2018-07-02T05:50:19.116Z,102429.87
2018-07-02T05:52:46.745Z,102426.30
2018-07-02T05:55:14.358Z,102427.72
2018-07-02T05:57:42.086Z,102420.18
2018-07-02T06:00:12.143Z,102419.75
2018-07-02T06:02:39.793Z,102414.81
2018-07-02T06:05:07.813Z,102418.03
2018-07-02T06:07:35.459Z,102414.11
2018-07-02T06:10:03.143Z,102407.41
2018-07-02T06:12:31.766Z,102414.28
2018-07-02T06:14:59.437Z,102413.84
2018-07-02T06:17:27.240Z,102302.22
2018-07-02T06:19:55.123Z,102409.37
2018-07-02T06:22:22.878Z,102396.97
2018-07-02T06:24:50.565Z,102398.36
2018-07-02T06:27:18.614Z,102401.95
2018-07-02T06:29:46.265Z,102393.96
2018-07-02T06:32:13.987Z,102403.94
2018-07-02T06:34:41.759Z,102394.23
2018-07-02T06:37:09.356Z,102388.37
2018-07-02T06:39:36.999Z,102387.11
2018-07-02T06:42:05.021Z,102389.37
2018-07-02T06:44:32.676Z,102389.37
2018-07-02T06:47:00.744Z,102387.73
2018-07-02T06:49:29.070Z,102389.58
2018-07-02T06:51:56.874Z,102377.53
2018-07-02T06:54:24.530Z,102385.33
2018-07-02T06:56:53.427Z,102385.36
2018-07-02T06:59:21.025Z,102271.63
2018-07-02T07:01:50.020Z,102372.80
2018-07-02T07:04:18.014Z,102273.36
2018-07-02T07:06:45.767Z,102367.12
2018-07-02T07:09:13.479Z,102362.67
2018-07-02T07:11:42.445Z,102366.84
2018-07-02T07:14:10.069Z,102364.20
2018-07-02T07:16:38.617Z,102367.59
2018-07-02T07:19:06.580Z,102362.66
2018-07-02T07:21:34.230Z,102357.33
2018-07-02T07:24:01.924Z,102356.08
2018-07-02T07:26:29.885Z,102349.86
2018-07-02T07:28:57.557Z,102348.10
2018-07-02T07:31:25.310Z,102349.15
2018-07-02T07:33:53.966Z,102339.38
2018-07-02T07:36:21.653Z,102341.60
2018-07-02T07:38:49.411Z,102335.37
2018-07-02T07:41:17.278Z,102339.99
2018-07-02T07:43:44.962Z,102327.98
2018-07-02T07:46:12.710Z,102324.13
2018-07-02T07:48:40.508Z,102325.16
2018-07-02T07:51:08.195Z,102321.63
2018-07-02T07:53:36.157Z,102324.45
2018-07-02T07:56:04.073Z,102317.84
2018-07-02T07:58:31.722Z,102314.34
2018-07-02T08:00:59.415Z,102313.16
2018-07-02T08:03:27.487Z,102304.61
2018-07-02T08:05:55.096Z,102305.52
2018-07-02T08:08:22.863Z,102305.71
2018-07-02T08:10:50.756Z,102300.95
2018-07-02T08:13:18.430Z,102297.05
2018-07-02T08:15:46.232Z,102294.02
2018-07-02T08:18:14.533Z,102299.58
2018-07-02T08:20:42.226Z,102288.92
2018-07-02T08:23:10.044Z,102290.31
2018-07-02T08:25:37.881Z,102291.34
2018-07-02T08:28:05.443Z,102278.94
2018-07-02T08:30:33.303Z,102276.41
2018-07-02T08:33:01.346Z,102279.36
2018-07-02T08:35:28.951Z,102276.80
2018-07-02T08:37:57.786Z,102273.87
2018-07-02T08:40:25.546Z,102264.16
2018-07-02T08:42:53.237Z,102266.53
2018-07-02T08:45:21.210Z,102263.16
2018-07-02T08:47:48.966Z,102260.47
2018-07-02T08:50:16.646Z,102253.27
2018-07-02T08:52:44.435Z,102245.17
2018-07-02T08:55:12.615Z,102245.19
2018-07-02T08:57:40.337Z,102235.36
2018-07-02T09:00:08.429Z,102235.89
2018-07-02T09:02:36.212Z,102229.64
2018-07-02T09:05:03.962Z,102222.77
2018-07-02T09:07:31.841Z,102218.86
2018-07-02T09:09:59.641Z,102221.81
2018-07-02T09:12:27.226Z,102219.15
2018-07-02T09:14:55.971Z,102219.75
2018-07-02T09:17:23.695Z,102213.98
2018-07-02T09:19:51.863Z,102215.84
2018-07-02T09:22:19.911Z,102215.01
2018-07-02T09:24:47.767Z,102216.52
2018-07-02T09:27:15.639Z,102210.73
2018-07-02T09:29:43.687Z,102203.59
2018-07-02T09:32:12.591Z,102203.86
2018-07-02T09:34:40.112Z,102209.68
2018-07-02T09:37:07.975Z,102211.03
2018-07-02T09:39:35.803Z,102204.15
2018-07-02T09:42:03.500Z,102200.95
2018-07-02T09:44:31.339Z,102196.88
2018-07-02T09:46:59.251Z,102184.89
2018-07-02T09:49:26.919Z,102182.78
2018-07-02T09:51:54.655Z,102176.27
2018-07-02T09:54:22.520Z,102176.75
2018-07-02T09:56:50.319Z,102170.05
2018-07-02T09:59:17.973Z,102171.12
2018-07-02T10:01:45.859Z,102158.30
2018-07-02T10:04:13.512Z,102161.31
2018-07-02T10:06:41.500Z,102156.95
2018-07-02T10:09:11.163Z,102153.73
2018-07-02T10:11:38.903Z,102150.39
2018-07-02T10:14:06.812Z,102148.53
2018-07-02T10:16:34.948Z,102141.56
2018-07-02T10:19:02.672Z,102134.97
2018-07-02T10:21:30.625Z,102133.91
2018-07-02T10:23:58.335Z,102130.39
2018-07-02T10:26:26.002Z,102122.14
2018-07-02T10:28:53.750Z,102120.06
2018-07-02T10:31:21.739Z,102110.27
2018-07-02T10:33:49.376Z,102103.27
2018-07-02T10:36:17.199Z,102104.37
2018-07-02T10:38:45.644Z,102101.21
2018-07-02T10:41:13.994Z,102091.86
2018-07-02T10:43:41.879Z,102086.00
2018-07-02T10:46:09.675Z,102087.14
2018-07-02T10:48:37.345Z,102087.65
2018-07-02T10:51:04.956Z,102076.84
2018-07-02T10:53:32.878Z,102077.94
2018-07-02T10:56:00.504Z,102083.15
2018-07-02T10:58:28.962Z,102065.10
2018-07-02T11:00:56.770Z,102070.21
2018-07-02T11:03:24.479Z,102067.91
2018-07-02T11:05:52.168Z,102066.12
2018-07-02T11:08:19.905Z,102065.98
2018-07-02T11:10:47.620Z,102068.78
2018-07-02T11:13:15.380Z,102061.62
2018-07-02T11:15:43.502Z,102062.02
2018-07-02T11:18:11.108Z,102056.12
2018-07-02T11:20:39.855Z,102064.73
2018-07-02T11:23:07.639Z,102062.21
2018-07-02T11:25:35.900Z,102055.70
2018-07-02T11:28:03.707Z,102053.84
2018-07-02T11:30:31.583Z,102055.55
2018-07-02T11:32:59.241Z,102050.61
2018-07-02T11:35:27.212Z,102053.06
2018-07-02T11:37:55.227Z,102050.84
2018-07-02T11:40:22.821Z,102041.46
2018-07-02T11:42:50.687Z,102032.55
2018-07-02T11:45:18.644Z,102038.56
2018-07-02T11:47:46.453Z,102041.64
2018-07-02T11:50:14.319Z,102041.30
2018-07-02T11:52:42.261Z,102038.06
2018-07-02T11:55:09.912Z,102037.03
2018-07-02T11:57:37.717Z,102034.46
2018-07-02T12:00:06.448Z,102027.28
2018-07-02T12:02:34.111Z,102024.75
2018-07-02T12:05:01.888Z,102015.83
2018-07-02T12:07:29.780Z,102019.61
2018-07-02T12:09:57.397Z,102017.94
2018-07-02T12:12:25.282Z,102016.78
2018-07-02T12:14:53.061Z,102014.57
2018-07-02T12:17:20.669Z,102010.80
2018-07-02T12:19:49.210Z,102009.97
2018-07-02T12:22:17.927Z,102013.37
2018-07-02T12:24:45.498Z,102012.53
2018-07-02T12:27:13.341Z,102013.54
2018-07-02T12:29:41.077Z,102012.70
2018-07-02T12:32:09.412Z,102012.00
2018-07-02T12:34:37.294Z,102005.82
2018-07-02T12:37:05.257Z,102000.34
2018-07-02T12:39:32.897Z,101999.64
2018-07-02T12:42:00.720Z,102002.34
2018-07-02T12:44:28.569Z,101998.56
2018-07-02T12:46:56.237Z,101996.00
2018-07-02T12:49:23.917Z,101993.46
2018-07-02T12:51:51.763Z,101991.25
2018-07-02T12:54:19.416Z,101979.13
2018-07-02T12:56:47.151Z,101978.27
2018-07-02T12:59:15.003Z,101984.23
2018-07-02T13:01:42.798Z,101974.98
2018-07-02T13:04:10.604Z,101958.69
2018-07-02T13:06:38.475Z,101961.56
2018-07-02T13:09:07.879Z,101958.12
2018-07-02T13:11:35.765Z,101952.44
2018-07-02T13:14:03.746Z,101951.36
2018-07-02T13:16:31.343Z,101951.02
2018-07-02T13:18:59.255Z,101947.57
2018-07-02T13:21:27.036Z,101939.14
2018-07-02T13:23:54.643Z,101938.68
2018-07-02T13:26:23.207Z,101938.28
2018-07-02T13:28:51.053Z,101935.92
2018-07-02T13:31:18.701Z,101927.64
2018-07-02T13:33:46.395Z,101923.83
2018-07-02T13:36:14.267Z,101915.63
2018-07-02T13:38:41.904Z,101903.77
2018-07-02T13:41:10.988Z,101905.69
2018-07-02T13:43:38.722Z,101897.73
2018-07-02T13:46:06.426Z,101903.80
2018-07-02T13:48:34.360Z,101897.16
2018-07-02T13:51:02.341Z,101901.32
2018-07-02T13:53:29.898Z,101895.58
2018-07-02T13:55:57.730Z,101894.77
2018-07-02T13:58:25.504Z,101898.08
2018-07-02T14:00:53.167Z,101895.55
2018-07-02T14:03:21.209Z,101897.83
2018-07-02T14:05:49.482Z,101889.65
2018-07-02T14:08:17.168Z,101893.12
2018-07-02T14:10:45.062Z,101892.18
2018-07-02T14:13:12.956Z,101878.58
2018-07-02T14:15:40.587Z,101871.80
2018-07-02T14:18:08.226Z,101865.38
2018-07-02T14:20:36.620Z,101859.81
2018-07-02T14:23:04.398Z,101859.19
2018-07-02T14:25:32.237Z,101860.61
2018-07-02T14:28:00.021Z,101862.77
2018-07-02T14:30:27.939Z,101857.12
2018-07-02T14:32:55.797Z,101860.14
2018-07-02T14:35:23.752Z,101854.76
2018-07-02T14:37:52.023Z,101852.33
2018-07-02T14:40:19.760Z,101853.48
2018-07-02T14:42:48.111Z,101854.42
2018-07-02T14:45:15.919Z,101839.87
2018-07-02T14:47:43.454Z,101844.75
2018-07-02T14:50:11.222Z,101841.83
2018-07-02T14:52:38.898Z,101831.58
2018-07-02T14:55:06.745Z,101838.91
2018-07-02T14:57:34.433Z,101837.69
2018-07-02T15:00:02.119Z,101836.19
2018-07-02T15:02:30.024Z,101832.94
2018-07-02T15:04:57.913Z,101835.66
2018-07-02T15:07:25.718Z,101838.38
2018-07-02T15:09:53.622Z,101840.27
2018-07-02T15:12:21.433Z,101848.05
2018-07-02T15:14:49.113Z,101837.45
2018-07-02T15:17:16.998Z,101844.27
2018-07-02T15:19:45.977Z,101834.39
2018-07-02T15:22:13.664Z,101833.90
2018-07-02T15:24:41.374Z,101833.75
2018-07-02T15:27:09.209Z,101832.88
2018-07-02T15:29:36.822Z,101824.52
2018-07-02T15:32:04.589Z,101823.30
2018-07-02T15:34:32.516Z,101822.77
2018-07-02T15:37:01.161Z,101818.41
2018-07-02T15:39:28.997Z,101821.13
2018-07-02T15:41:56.804Z,101820.14
2018-07-02T15:44:24.434Z,101825.29
2018-07-02T15:46:52.331Z,101819.03
2018-07-02T15:49:20.088Z,101826.13
2018-07-02T15:51:47.653Z,101819.16
2018-07-02T15:54:15.426Z,101815.69
2018-07-02T15:56:43.236Z,101813.43
2018-07-02T15:59:10.842Z,101811.05
2018-07-02T16:01:38.721Z,101805.73
2018-07-02T16:04:06.744Z,101806.19
2018-07-02T16:06:34.550Z,101803.16
2018-07-02T16:09:02.514Z,101801.34
2018-07-02T16:11:30.267Z,101707.78
2018-07-02T16:13:58.742Z,101805.99
2018-07-02T16:16:26.464Z,101810.77
2018-07-02T16:18:54.214Z,101805.01
2018-07-02T16:21:21.855Z,101799.06
2018-07-02T16:23:49.751Z,101798.72
2018-07-02T16:26:17.612Z,101801.75
2018-07-02T16:28:45.298Z,101803.34
2018-07-02T16:31:13.088Z,101796.60
2018-07-02T16:33:40.993Z,101805.16
2018-07-02T16:36:08.620Z,101797.84
2018-07-02T16:38:37.353Z,101803.58
2018-07-02T16:41:05.334Z,101692.89
2018-07-02T16:43:33.022Z,101793.88
2018-07-02T16:46:00.827Z,101797.48
2018-07-02T16:48:28.601Z,101794.28
2018-07-02T16:50:56.342Z,101791.91
2018-07-02T16:53:24.294Z,101792.50
2018-07-02T16:55:51.994Z,101791.34
2018-07-02T16:58:19.675Z,101784.09
2018-07-02T17:00:47.682Z,101783.55
2018-07-02T17:03:15.441Z,101782.09
2018-07-02T17:05:43.101Z,101778.30
2018-07-02T17:08:10.985Z,101780.83
2018-07-02T17:10:38.874Z,101774.80
2018-07-02T17:13:06.603Z,101773.88
2018-07-02T17:15:34.510Z,101765.66
2018-07-02T17:18:02.287Z,101769.30
2018-07-02T17:20:29.928Z,101762.64
2018-07-02T17:22:57.526Z,101757.48
2018-07-02T17:25:25.279Z,101650.81
2018-07-02T17:27:52.921Z,101752.33
2018-07-02T17:30:20.540Z,101761.50
2018-07-02T17:32:48.445Z,101756.60
2018-07-02T17:35:17.219Z,101751.59
2018-07-02T17:37:44.887Z,101752.39
2018-07-02T17:40:12.685Z,101746.72
2018-07-02T17:42:40.528Z,101745.44
2018-07-02T17:45:08.229Z,101747.08
2018-07-02T17:47:36.035Z,101743.64
2018-07-02T17:50:04.085Z,101745.63
2018-07-02T17:52:31.680Z,101741.69
2018-07-02T17:54:59.481Z,101736.74
2018-07-02T17:57:27.375Z,101736.50
2018-07-02T17:59:55.035Z,101729.64
2018-07-02T18:02:23.490Z,101724.98
2018-07-02T18:04:51.353Z,101721.56
2018-07-02T18:07:19.020Z,101719.13
2018-07-02T18:09:47.131Z,101728.39
2018-07-02T18:12:14.967Z,101719.55
2018-07-02T18:14:42.554Z,101720.53
2018-07-02T18:17:10.241Z,101714.12
2018-07-02T18:19:38.054Z,101719.69
2018-07-02T18:22:05.727Z,101715.23
2018-07-02T18:24:33.466Z,101723.91
2018-07-02T18:27:01.345Z,101728.95
2018-07-02T18:29:29.101Z,101727.25
2018-07-02T18:31:57.160Z,101728.61
2018-07-02T18:34:24.943Z,101726.38
2018-07-02T18:36:52.641Z,101722.45
2018-07-02T18:39:20.398Z,101720.01
2018-07-02T18:41:48.165Z,101720.53
2018-07-02T18:44:15.964Z,101718.16
2018-07-02T18:46:43.716Z,101721.02
2018-07-02T18:49:11.384Z,101725.72
2018-07-02T18:51:39.069Z,101716.98
2018-07-02T18:54:06.814Z,101716.42
2018-07-02T18:56:34.576Z,101717.92
2018-07-02T18:59:02.280Z,101718.41
2018-07-02T19:01:30.040Z,101716.56
2018-07-02T19:03:57.708Z,101707.41
2018-07-02T19:06:25.339Z,101707.89
2018-07-02T19:08:53.156Z,101708.41
2018-07-02T19:11:21.295Z,101701.24
2018-07-02T19:13:48.946Z,101699.88
2018-07-02T19:16:16.831Z,101702.45
2018-07-02T19:18:44.586Z,101698.39
2018-07-02T19:21:12.295Z,101705.17
2018-07-02T19:23:40.014Z,101598.66
2018-07-02T19:26:07.685Z,101699.75
2018-07-02T19:28:35.641Z,101607.98
2018-07-02T19:31:04.134Z,101692.61
2018-07-02T19:33:32.073Z,101696.33
2018-07-02T19:35:59.895Z,101695.11
2018-07-02T19:38:27.862Z,101693.89
2018-07-02T19:40:55.681Z,101704.90
2018-07-02T19:43:23.399Z,101702.31
2018-07-02T19:45:51.249Z,101705.66
2018-07-02T19:48:18.917Z,101709.00
2018-07-02T19:50:46.622Z,101705.20
2018-07-02T19:53:14.465Z,101708.20
2018-07-02T19:55:42.347Z,101707.64
2018-07-02T19:58:10.028Z,101707.05
2018-07-02T20:00:37.813Z,101708.30
2018-07-02T20:03:05.909Z,101711.91
2018-07-02T20:05:33.590Z,101716.25
2018-07-02T20:08:01.320Z,101709.95
2018-07-02T20:10:29.235Z,101713.38
2018-07-02T20:12:57.065Z,101710.52
2018-07-02T20:15:25.280Z,101702.16
2018-07-02T20:17:52.968Z,101704.11
2018-07-02T20:20:20.608Z,101704.73
2018-07-02T20:22:48.382Z,101707.51
2018-07-02T20:25:16.415Z,101705.56
2018-07-02T20:27:44.337Z,101710.91
2018-07-02T20:30:12.242Z,101711.18
2018-07-02T20:32:40.083Z,101709.95
2018-07-02T20:35:07.754Z,101701.73
2018-07-02T20:37:35.546Z,101697.06
2018-07-02T20:40:03.714Z,101691.53
2018-07-02T20:42:31.553Z,101682.69
2018-07-02T20:44:59.600Z,101679.73
2018-07-02T20:47:27.334Z,101676.80
2018-07-02T20:49:54.979Z,101683.84
2018-07-02T20:52:23.593Z,101683.25
2018-07-02T20:54:51.422Z,101680.67
2018-07-02T20:57:19.146Z,101681.81
2018-07-02T20:59:46.924Z,101677.39
2018-07-02T21:02:14.745Z,101669.88
2018-07-02T21:04:42.375Z,101670.14
2018-07-02T21:07:13.634Z,101666.21
2018-07-02T21:09:41.432Z,101664.13
2018-07-02T21:12:09.099Z,101662.16
2018-07-02T21:14:36.891Z,101660.10
2018-07-02T21:17:04.580Z,101658.50
2018-07-02T21:19:32.247Z,101649.66
2018-07-02T21:22:00.096Z,101649.80
2018-07-02T21:24:27.741Z,101648.19
2018-07-02T21:26:56.500Z,101653.04
2018-07-02T21:29:24.279Z,101654.52
2018-07-02T21:31:52.069Z,101641.69
2018-07-02T21:34:19.662Z,101634.31
2018-07-02T21:36:47.446Z,101637.28
2018-07-02T21:39:15.253Z,101634.36
2018-07-02T21:41:43.426Z,101632.88
2018-07-02T21:44:11.204Z,101633.15
2018-07-02T21:46:38.866Z,101630.70
2018-07-02T21:49:06.607Z,101626.77
2018-07-02T21:51:34.373Z,101629.39
2018-07-02T21:54:02.164Z,101634.72
2018-07-02T21:56:30.151Z,101633.98
2018-07-02T21:58:57.860Z,101632.02
2018-07-02T22:01:25.848Z,101629.58
2018-07-02T22:03:53.589Z,101637.84
2018-07-02T22:06:21.406Z,101637.74
2018-07-02T22:08:49.201Z,101637.13
2018-07-02T22:11:17.830Z,101639.11
2018-07-02T22:13:45.663Z,101641.94
2018-07-02T22:16:13.537Z,101635.95
2018-07-02T22:18:41.259Z,101640.63
2018-07-02T22:21:09.005Z,101632.89
2018-07-02T22:23:36.712Z,101639.79
2018-07-02T22:26:05.468Z,101641.27
2018-07-02T22:28:33.262Z,101632.41
2018-07-02T22:31:00.974Z,101632.54
2018-07-02T22:33:28.573Z,101625.89
2018-07-02T22:35:56.582Z,101632.44
2018-07-02T22:38:24.924Z,101626.06
2018-07-02T22:40:52.558Z,101628.38
2018-07-02T22:43:20.375Z,101619.16
2018-07-02T22:45:48.279Z,101619.77
2018-07-02T22:48:15.954Z,101607.72
2018-07-02T22:50:43.724Z,101606.98
2018-07-02T22:53:11.599Z,101616.58
2018-07-02T22:55:50.555Z,101618.80
2018-07-02T22:58:18.411Z,101621.41
2018-07-02T23:00:46.085Z,101509.41
2018-07-02T23:03:13.853Z,101615.89
2018-07-02T23:05:41.668Z,101611.96
2018-07-02T23:08:09.516Z,101610.34
2018-07-02T23:10:37.204Z,101602.97
2018-07-02T23:13:05.118Z,101595.97
2018-07-02T23:15:32.795Z,101602.64
2018-07-02T23:18:00.729Z,101602.89
2018-07-02T23:20:28.526Z,101595.87
2018-07-02T23:23:01.515Z,101599.22
2018-07-02T23:25:29.543Z,101586.78
2018-07-02T23:27:58.560Z,101595.41
2018-07-02T23:30:26.626Z,101586.06
2018-07-02T23:32:54.678Z,101593.80
2018-07-02T23:35:22.326Z,101589.86
2018-07-02T23:37:52.211Z,101594.56
2018-07-02T23:40:22.480Z,101588.41
2018-07-02T23:42:51.257Z,101585.47
2018-07-02T23:45:19.032Z,101587.44
2018-07-02T23:47:47.071Z,101581.28
2018-07-02T23:50:14.716Z,101581.88
2018-07-02T23:52:42.446Z,101575.89
2018-07-02T23:55:10.385Z,101580.20
2018-07-02T23:57:38.198Z,101572.46
